AirNav   Pilot Hours Calculator
 
 291 users online  

80D Clare County Airport
Harrison, Michigan, USA

GOING TO HARRISON?


FAA INFORMATION EFFECTIVE 26 MARCH 2020

Location

FAA Identifier: 80D
Lat/Long: 44-03-08.1907N 084-48-47.3103W
44-03.136512N 084-48.788505W
44.0522752,-84.8131417
(estimated)
Elevation: 1142 ft. / 348 m (estimated)
Variation: 05W (1985)
From city: 2 miles NW of HARRISON, MI
Time zone: UTC -4 (UTC -5 during Standard Time)
Zip code: 48625

Airport Operations

Airport use: Open to the public
Activation date: 04/1940
Control tower: no
ARTCC: MINNEAPOLIS CENTER
FSS: LANSING FLIGHT SERVICE STATION
NOTAMs facility: LAN (NOTAM-D service available)
Attendance: IREG
Wind indicator: yes
Segmented circle: yes
Lights: ACTVT LIRL - CTAF.
Beacon: white-green (lighted land airport)
Operates sunset to sunrise.

Airport Communications

CTAF/UNICOM: 122.8
WX ASOS at HTL (19 nm N): 118.05 (989-366-4825)

Nearby radio navigation aids

VOR radial/distance  VOR name  Freq  Var
MOPr358/26.0MOUNT PLEASANT VOR/DME110.6005W
CGGr191/(37.9)GRAYLING VOR109.8006W

Airport Services

Parking: tiedowns
Airframe service: NONE
Powerplant service: NONE
Bottled oxygen: NONE
Bulk oxygen: NONE

Runway Information

Runway 18/36

Dimensions: 2978 x 50 ft. / 908 x 15 m
Surface: asphalt, in poor condition
EXTENSIVE CRACKING.
Runway edge lights: non-standard
RY 18/36 NSTD LIRL; 30 FT FM RY EDGE.
Runway edge markings: RY 18/36 MKGS FADED.
RUNWAY 18  RUNWAY 36
Latitude: 44-03.272167N44-02.782000N
Longitude: 084-48.779667W084-48.787167W
Elevation: 1141.0 ft.1138.0 ft.
Traffic pattern: leftleft
Displaced threshold: 465 ft.1160 ft.
Markings: basic, in poor conditionbasic, in poor condition
Runway end identifier lights: nono
Obstructions: 50 ft. trees, 300 ft. from runway, 125 ft. right of centerline, 2:1 slope to clear
APCH RATIO 20:1 AT DSPLCD THLD OVR 57 FT TREE, 1150 FT DSTC.
70 ft. trees, 208 ft. from runway
4 FT FENCE 75 FT FM THLD L/R, 30 FT PLINE 177 FT FM THLD L/R. +68 FT TREES, 201 FM THLD, L/R.

Runway 5/23

Dimensions: 3000 x 100 ft. / 914 x 30 m
Surface: turf, in fair condition
Runway edge markings: RY 5/23 MKD WITH 3 FT YELLOW CONES.
RUNWAY 5  RUNWAY 23
Latitude: 44-02.962333N44-03.294333N
Longitude: 084-49.037833W084-48.531667W
Elevation: 1139.0 ft.1141.0 ft.
Traffic pattern: leftleft
Runway heading: 053 magnetic, 048 true233 magnetic, 228 true
Displaced threshold: no800 ft.
Obstructions: 66 ft. trees, 330 ft. from runway, 5:1 slope to clear
APCH RATIO 20:1 AT DSPLCD THLD OVR 100 FT TREES ON HILL, 2000 FT DSTC, 0 FT BOTH.
42 ft. trees, 50 ft. from runway, 45 ft. right of centerline
APCH RATIO 20:1 AT DSPLCD THLD.

Runway 9/27

Dimensions: 2403 x 100 ft. / 732 x 30 m
Surface: turf, in poor condition
SFC ROUGH.
Runway edge markings: RY 09/27 MARKED WITH 3 FT YELLOW CONES.
RUNWAY 9  RUNWAY 27
Latitude: 44-03.291000N44-03.273667N
Longitude: 084-49.073500W084-48.525500W
Elevation: 1142.0 ft.1141.0 ft.
Traffic pattern: leftleft
Runway heading: 098 magnetic, 093 true278 magnetic, 273 true
Displaced threshold: 1196 ft.837 ft.
Obstructions: 70 ft. trees, 103 ft. left of centerline
APCH RATIO 2:1 AT DSPLCD THLD. OVR 60 FT TREE, 120 FT FM DSPLCD THLD, 92 FT L; 20:1 BASED ON SRAIGHT OUT.
100 ft. trees, 204 ft. from runway, 125 ft. right of centerline, 2:1 slope to clear
APCH RATIO 11:1 AT DSPLCD THLD, 20:1 BASED ON STRAIGHT OUT.

Airport Ownership and Management from official FAA records

Ownership: Publicly-owned
Owner: COUNTY OF CLARE
PO BOX 438
HARRISON, MI 48625
Phone 989-539-2510
Manager: GALE GENE BENSINGER
PO BOX 438
HARRISON, MI 48625
Phone (989) 862-5333
MGR RES 989-368-1172

Airport Operational Statistics

Aircraft based on the field: 8
Single engine airplanes: 8
    
Aircraft operations: avg 96/week *
60% transient general aviation
40% local general aviation
* for 12-month period ending 31 December 2014

Additional Remarks

RY 09/27 AND 05/23 CLSD NOV THROUGH MAR AND WHEN SNOW COVERED EXCEPT FOR SKI EQUIPPED ACFT.
RDO CTL MODEL ACFT ON & INVOF ARPT.
DEER ON & INVOF ARPT.
RY 27, 22 FT PLINE, 308 FT DSTC, APCH RATIO 14:1. POWERLINE MKD WITH ORANGE BALLS
FOR CD CTC MINNEAPOLIS ARTCC AT 651-463-5588.

Instrument Procedures

There are no published instrument procedures at 80D.

Some nearby airports with instrument procedures:

48D - Clare Municipal Airport (13 nm S)
KGDW - Gladwin Zettel Memorial Airport (15 nm E)
KHTL - Roscommon County - Blodgett Memorial Airport (19 nm N)
KMOP - Mount Pleasant Municipal Airport (26 nm S)
KCAD - Wexford County Airport (29 nm NW)
 
Loc | Ops | Rwys | IFR | FBO | Links
Com | Nav | Svcs | Stats | Notes
Area around 80D (Clare County Airport)
 
Road maps at: MapQuest Bing Google
 
Aerial photo
WARNING: Photo may not be current or correct
Aerial photo of 80D (Clare County Airport)
Do you have a better or more recent aerial photo of Clare County Airport that you would like to share? If so, please send us your photo.

 
Sectional chart

 
Airport distance calculator
Flying to Clare County Airport? Find the distance to fly.

From to 80D

Sunrise and sunset
Times for 03-Apr-2020
 Local
(UTC-4)
 Zulu
(UTC)
Morning civil twilight06:4710:47
Sunrise07:1611:16
Sunset20:0800:08
Evening civil twilight20:3800:38

Current date and time
Zulu (UTC)  03-Apr-2020 09:09:25
Local (UTC-4)  03-Apr-2020 05:09:25
 
METAR
KHTL 
19nm N 
030853Z AUTO 00000KT 10SM CLR M03/M06 A3010 RMK AO2 SLP201 T10281056 57003
KMOP 
26nm S 
030856Z AUTO 26003KT 10SM CLR 00/M01 A3010 RMK AO2 T00001011
KCAD 
29nm NW 
030855Z AUTO 00000KT 10SM CLR M05/M07 A3008 RMK AO2
KY31 
30nm NE 
030855Z AUTO 27006KT 10SM CLR M02/M05 A3010 RMK AO2 T10211055
KIKW 
33nm SE 
030856Z AUTO 00000KT 10SM CLR M02/M04 A3010 RMK AO2 T10191045
KRQB 
36nm SW 
030856Z AUTO 00000KT 10SM CLR 00/M03 A3010 RMK AO2
TAF
KMBS 
44nm SE 
030520Z 0306/0406 04007KT P6SM SCT250
NOTAMs
Click for the latest NOTAMs
NOTAMs are issued by the DoD/FAA and will open in a separate window not controlled by AirNav.

 

 
 

Where to Eat: Catering, Restaurants, Food shops

  
 Business Name 
 
 Contact 
 
 Services / Description 
 
Distance
 
Comments
  
Yvonne's Aero-Port Restaurant 989-539-9887
no information available

If you are affiliated with Yvonne's Aero-Port Restaurant and would like to show here your services, contact info, web link, logo, and more, click here
on airport  
   write
 

Would you like to see your business listed on this page?

 If your business provides an interesting product or service to pilots, flight crews, aircraft, or users of the Clare County Airport, you should consider listing it here.  To start the listing process, click on the button below
 
Add a business
 

Other Pages about Clare County Airport

Page from the Michigan Airport Directory (PDF)
 
Update a link
 
Copyright © AirNav, LLC. All rights reserved. Privacy Policy  Contact